Riverton, Illinois
Current Conditions -  °F | °C
As of 10:45 PM on Wednesday 26 Nov 2014 (Local Time) from KSPI Reporting Station
Light Snow Light Snow  
Wind Chill: 19°   Ceiling: 700
Heat Index: 28°   Visibility: 4mi
Dew Point: 26°   Wind: 10mph
Humidity: 92%   Direction: 10°N
Pressure: 30.2"   Gusts: NA
Location:  39.84°N, 89.54°W
Report Text: KSPI 270445Z AUTO 01009KT 4SM -SN BR BKN007 BKN026 OVC036 M02/M03 A3020 RMK AO2 P0001 T10221033
Loading
Personal Weather Stations






























Interactive Weather Map New forecast layout! Learn more

10-Day Weather Forecast

Advertisements
Track Severe Weather on mobile